Buffalo Gap, SD

1:43 AM MST on February 27, 2015 (GMT -0700)
HADS BEAVER CREEK NEAR BUFFALO GAP 2S SD US USGS | Change Station
CLOSE
Current Station
Personal Weather Station
Location: Buffalo Gap, SD
Elevation: 3149 ft
Nearby Weather Stations

Elev 3149 ft 43.47 °N, 103.31 °W | Updated 58 minutes ago

Clear
Clear
-4 °F
Feels Like -4 °F
N
Wind Variable Wind from North
Gusts 0.0 mph

Today
High -- | Low -- °F
--% Chance of Precip.
Yesterday
High -- | Low -- °F
Precip. -- in
6:33 AM 5:39 PM
Waxing Gibbous, 67% visible
Pressure 30.56 in
Visibility 10.0 miles
Clouds Clear
Windchill -4 °F
Dew Point Not available.
Humidity Not available.
Rainfall 0.00 in
Snow Depth Not available.
UV 0 out of 12
Pollen .30 out of 12
Air Quality Not available.
Flu Activity Not available.
METAR KRAP 270752Z AUTO 00000KT 10SM CLR M21/M23 A3031 RMK AO2 SLP346 T12061233

More Conditions Fewer Conditions

Pressure 30.56 in
Visibility 10.0 miles
Clouds Clear
Windchill -4 °F
Dew Point Not available.
Humidity Not available.
Rainfall 0.00 in
Snow Depth Not available.
UV 0 out of 12
Pollen .30 out of 12
Air Quality Not available.
Flu Activity Not available.
METAR KRAP 270752Z AUTO 00000KT 10SM CLR M21/M23 A3031 RMK AO2 SLP346 T12061233

More Conditions Fewer Conditions

10-Day Weather Forecast

Almanac

Astronomy

Feb. 27, 2015 Rise Set
Actual Time
Civil Twilight
Nautical Twilight
Astronomical Twilight
Moon
Length of Visible Light
Length of Day
Tomorrow will be .
, % of the Moon is Illuminated

Today's Extremes

State Highs State Lows

Community

WunderPhotos

Upload Photos

1,800,649 photos uploaded!

WunderBlogs® & News

Nearby

Air Quality

  Air Quality AQ Index Pollutant
Not available.

Snow Depth

Station Depth Elevation

Earthquake Activity

City Distance Mag. Time & Date
Minimum magnitude displayed is 2.5.

Coastal Water Temperatures

Place Temperature

Nearby Weather Stations